This is the latest recevied weather packets stored in our database for station/object DO3HUM-5. If no packets are shown the sender has not sent any weather packets the latest 10 day(s).
| Time | Temp. | Humidity | Pressure | Rain* | Wind** | Luminosity | Snow |
|---|---|---|---|---|---|---|---|
| 1777629031 | 20.56° C | 42% | 1036.9 hPa | 0 mm | - | - | - |
| 1777628430 | 20.56° C | 44% | 1037 hPa | 0 mm | - | - | - |
| 1777627825 | 20.56° C | 44% | 1037.1 hPa | 0 mm | - | - | - |
| 1777627222 | 19.44° C | 46% | 1037.2 hPa | 0 mm | - | - | - |
| 1777626621 | 20.56° C | 45% | 1037.2 hPa | 0 mm | - | - | - |
| 1777626016 | 20° C | 46% | 1037.3 hPa | 0 mm | - | - | - |
| 1777625476 | 18.89° C | 48% | 1037.3 hPa | 0 mm | - | - | - |
| 1777624873 | 17.78° C | 50% | 1037.4 hPa | 0 mm | - | - | - |
| 1777624268 | 19.44° C | 46% | 1037.5 hPa | 0 mm | - | - | - |
| 1777623667 | 17.78° C | 49% | 1037.4 hPa | 0 mm | - | - | - |
| 1777623060 | 17.22° C | 51% | 1037.4 hPa | 0 mm | - | - | - |
| 1777622455 | 17.78° C | 49% | 1037.5 hPa | 0 mm | - | - | - |
| 1777621853 | 17.22° C | 48% | 1037.5 hPa | 0 mm | - | - | - |
| 1777621250 | 16.11° C | 53% | 1037.6 hPa | 0 mm | - | - | - |
| 1777620648 | 16.11° C | 51% | 1037.6 hPa | 0 mm | - | - | - |
| 1777620044 | 14.44° C | 52% | 1037.6 hPa | 0 mm | - | - | - |
| 1777618840 | 13.89° C | 53% | 1037.6 hPa | 0 mm | - | - | - |
| 1777618235 | 11.67° C | 56% | 1037.5 hPa | 0 mm | - | - | - |
| 1777617633 | 11.11° C | 59% | 1037.3 hPa | 0 mm | - | - | - |
| 1777617030 | 10.56° C | 63% | 1037.4 hPa | 0 mm | - | - | - |
| 1777616427 | 10° C | 65% | 1037.3 hPa | 0 mm | - | - | - |
| 1777615824 | 10° C | 67% | 1037.4 hPa | 0 mm | - | - | - |
| 1777615221 | 10° C | 67% | 1037.3 hPa | 0 mm | - | - | - |
| 1777614619 | 9.44° C | 68% | 1037.3 hPa | 0 mm | - | - | - |
| 1777614017 | 10° C | 67% | 1037.3 hPa | 0 mm | - | - | - |
* Rain latest hour (hover to see other rain measurements)
** Current wind speed in m/s (hover to see current wind gust speed)